Time;durP1;ratioP1;P1;durP2;ratioP2;P2;SDS_P1;SDS_P2;PMS_P1;PMS_P2;Temp;Humidity;BMP_temperature;BMP_pressure;BME280_temperature;BME280_humidity;BME280_pressure;Samples;Min_cycle;Max_cycle;Signal;HPM_P1;HPM_P2
2023/12/18 00:02:13;;;;;;;2.25;0.30;;;;;;;4.61;84.03;100827.53;5089260;28;20040;-73
2023/12/18 00:04:40;;;;;;;4.13;1.17;;;;;;;4.61;83.95;100835.31;5072554;28;20076;-73
2023/12/18 00:07:07;;;;;;;6.18;0.50;;;;;;;4.62;83.90;100823.19;5074428;28;20075;-73
2023/12/18 00:09:34;;;;;;;7.75;0.70;;;;;;;4.62;83.92;100816.28;5087974;28;20123;-73
2023/12/18 00:12:01;;;;;;;6.22;0.57;;;;;;;4.62;83.75;100816.28;5086611;28;20091;-73
2023/12/18 00:14:28;;;;;;;9.43;0.40;;;;;;;4.62;84.10;100789.50;5072446;28;20509;-73
2023/12/18 00:16:56;;;;;;;5.25;0.95;;;;;;;4.61;83.92;100793.84;5081440;28;20072;-73
2023/12/18 00:19:23;;;;;;;13.40;0.50;;;;;;;4.62;83.91;100798.16;5096874;28;20489;-73
2023/12/18 00:21:50;;;;;;;4.00;0.38;;;;;;;4.62;83.83;100799.88;5095912;28;20076;-73
2023/12/18 00:24:18;;;;;;;6.30;0.30;;;;;;;4.61;83.93;100799.03;5096114;28;20513;-73
2023/12/18 00:26:45;;;;;;;6.85;1.45;;;;;;;4.62;83.75;100805.06;5085952;28;20127;-73
2023/12/18 00:29:12;;;;;;;8.38;0.40;;;;;;;4.62;83.83;100816.28;5076678;28;20079;-73
2023/12/18 00:31:39;;;;;;;3.80;0.68;;;;;;;4.62;83.81;100812.84;5087015;28;20463;-73
2023/12/18 00:34:07;;;;;;;3.85;0.63;;;;;;;4.60;83.51;100812.81;5095993;28;20079;-73
2023/12/18 00:36:34;;;;;;;5.00;0.40;;;;;;;4.61;83.98;100803.34;5095790;28;20079;-73
2023/12/18 00:39:01;;;;;;;6.00;0.73;;;;;;;4.61;83.95;100798.16;5097052;28;20095;-73
2023/12/18 00:41:27;;;;;;;9.43;0.40;;;;;;;4.60;83.93;100797.28;5081960;28;20098;-73
2023/12/18 00:43:54;;;;;;;6.45;0.60;;;;;;;4.61;83.79;100791.25;5075569;28;20048;-73
2023/12/18 00:46:22;;;;;;;5.13;0.40;;;;;;;4.60;83.71;100780.88;5075534;28;20076;-73
2023/12/18 00:48:49;;;;;;;9.63;0.77;;;;;;;4.61;83.74;100792.97;5076609;28;20045;-73
2023/12/18 00:51:17;;;;;;;7.22;0.22;;;;;;;4.61;83.52;100803.34;5091642;28;20101;-74
2023/12/18 00:53:44;;;;;;;3.60;0.40;;;;;;;4.61;83.68;100813.72;5095542;28;20075;-74
2023/12/18 00:56:11;;;;;;;11.02;1.20;;;;;;;4.61;83.90;100808.53;5095416;28;20079;-74
2023/12/18 00:58:38;;;;;;;6.28;0.73;;;;;;;4.59;83.46;100821.47;5096353;28;20427;-74
2023/12/18 01:01:05;;;;;;;7.13;0.40;;;;;;;4.60;83.50;100819.72;5076820;28;20076;-73
2023/12/18 01:03:32;;;;;;;7.25;0.30;;;;;;;4.61;83.42;100813.72;5075173;28;20114;-72
2023/12/18 01:05:59;;;;;;;2.10;0.20;;;;;;;4.59;83.54;100816.28;5075197;28;20128;-72
2023/12/18 01:08:27;;;;;;;1.95;0.40;;;;;;;4.61;83.88;100811.97;5074904;28;20076;-73
2023/12/18 01:10:54;;;;;;;2.13;0.30;;;;;;;4.61;83.72;100814.56;5075061;28;20518;-72
2023/12/18 01:13:21;;;;;;;5.55;0.75;;;;;;;4.62;83.90;100810.25;5075166;28;20076;-72
2023/12/18 01:15:48;;;;;;;8.65;1.33;;;;;;;4.62;83.59;100810.25;5074975;28;20051;-72
2023/12/18 01:18:15;;;;;;;3.30;0.30;;;;;;;4.61;84.05;100824.94;5077797;28;20075;-72
2023/12/18 01:20:42;;;;;;;7.25;0.40;;;;;;;4.62;83.77;100833.56;5079587;28;20080;-72
2023/12/18 01:23:09;;;;;;;9.45;0.75;;;;;;;4.62;83.94;100831.84;5074774;28;20076;-72
2023/12/18 01:25:37;;;;;;;5.55;0.35;;;;;;;4.63;83.83;100830.09;5074998;28;20087;-72
2023/12/18 01:28:05;;;;;;;9.15;0.45;;;;;;;4.62;83.72;100825.78;5074319;28;20120;-72
2023/12/18 01:30:32;;;;;;;10.02;0.70;;;;;;;4.63;83.77;100827.50;5075470;28;20076;-72
2023/12/18 01:32:59;;;;;;;10.32;1.10;;;;;;;4.64;83.75;100824.09;5081116;28;20079;-73
2023/12/18 01:35:26;;;;;;;3.88;0.30;;;;;;;4.64;84.10;100824.94;5096183;28;20044;-72
2023/12/18 01:37:53;;;;;;;7.15;0.50;;;;;;;4.65;84.19;100836.16;5094456;28;20532;-72
2023/12/18 01:40:20;;;;;;;3.72;0.30;;;;;;;4.64;84.10;100839.63;5094425;28;20103;-72
2023/12/18 01:42:48;;;;;;;6.25;0.60;;;;;;;4.66;84.00;100839.63;5085834;28;20474;-72
2023/12/18 01:45:15;;;;;;;10.60;0.75;;;;;;;4.67;84.12;100865.56;5074640;28;20094;-72
2023/12/18 01:47:42;;;;;;;8.90;0.50;;;;;;;4.67;84.19;100860.38;5084909;28;20083;-72
2023/12/18 01:50:10;;;;;;;5.93;0.50;;;;;;;4.67;84.19;100850.00;5094814;28;20087;-72
2023/12/18 01:52:39;;;;;;;5.13;0.40;;;;;;;4.68;84.25;100850.84;5094193;28;20134;-72
2023/12/18 01:55:07;;;;;;;3.78;1.02;;;;;;;4.68;84.02;100838.75;5094375;28;20514;-72
2023/12/18 01:57:36;;;;;;;4.60;0.38;;;;;;;4.69;84.43;100839.63;5094349;28;20079;-72
2023/12/18 02:00:06;;;;;;;7.35;0.50;;;;;;;4.70;84.39;100836.19;5094213;28;20555;-74
2023/12/18 02:02:34;;;;;;;6.28;0.60;;;;;;;4.70;84.06;100836.19;5079611;28;20076;-74
2023/12/18 02:05:01;;;;;;;4.88;1.10;;;;;;;4.71;84.29;100840.50;5074788;28;20072;-74
2023/12/18 02:07:29;;;;;;;4.97;0.30;;;;;;;4.71;84.05;100843.94;5090338;28;20076;-74
2023/12/18 02:09:56;;;;;;;8.50;0.60;;;;;;;4.72;84.44;100840.53;5094130;28;20084;-75
2023/12/18 02:12:23;;;;;;;4.32;1.33;;;;;;;4.73;84.08;100843.97;5077535;28;20076;-76
2023/12/18 02:14:51;;;;;;;9.70;0.40;;;;;;;4.72;84.16;100832.75;5073740;28;20076;-75
2023/12/18 02:17:20;;;;;;;12.88;0.43;;;;;;;4.73;84.18;100844.81;5091915;28;20073;-75
2023/12/18 02:19:47;;;;;;;5.28;0.28;;;;;;;4.72;84.58;100830.16;5093811;28;20048;-75
2023/12/18 02:22:13;;;;;;;9.18;0.52;;;;;;;4.74;84.13;100822.34;5073700;28;20052;-75
2023/12/18 02:24:42;;;;;;;3.63;0.63;;;;;;;4.75;84.26;100816.31;5074566;28;20495;-76
2023/12/18 02:27:09;;;;;;;13.38;0.60;;;;;;;4.75;84.50;100822.38;5094881;28;20454;-75
2023/12/18 02:29:36;;;;;;;3.38;0.50;;;;;;;4.75;84.50;100818.91;5092738;28;20509;-75
2023/12/18 02:32:03;;;;;;;6.70;0.30;;;;;;;4.75;84.52;100814.59;5093728;28;20075;-75
2023/12/18 02:34:30;;;;;;;8.50;1.17;;;;;;;4.76;84.32;100815.47;5090736;28;20043;-76
2023/12/18 02:36:57;;;;;;;8.23;0.30;;;;;;;4.78;84.19;100821.53;5074179;28;20056;-75
2023/12/18 02:39:23;;;;;;;4.95;0.30;;;;;;;4.75;84.38;100821.50;5078247;28;20083;-75
2023/12/18 02:41:52;;;;;;;4.03;0.50;;;;;;;4.77;84.25;100820.63;5093714;28;20130;-75
2023/12/18 02:44:20;;;;;;;6.20;0.52;;;;;;;4.77;84.34;100830.13;5093255;28;20051;-75
2023/12/18 02:46:46;;;;;;;7.03;0.35;;;;;;;4.77;84.43;100822.38;5094191;28;20047;-75
2023/12/18 02:49:13;;;;;;;5.65;0.40;;;;;;;4.77;84.00;100830.13;5093224;28;20067;-75
2023/12/18 02:51:40;;;;;;;8.27;0.63;;;;;;;4.78;84.42;100831.88;5093509;28;20055;-75
2023/12/18 02:54:07;;;;;;;8.65;0.45;;;;;;;4.77;84.33;100822.38;5093256;28;20083;-75
2023/12/18 02:56:34;;;;;;;7.60;0.40;;;;;;;4.78;84.39;100827.56;5094763;28;20080;-75
2023/12/18 02:59:02;;;;;;;9.82;0.40;;;;;;;4.78;84.20;100818.94;5084375;28;20068;-75
2023/12/18 03:01:29;;;;;;;8.18;0.90;;;;;;;4.79;84.55;100823.25;5074003;28;20090;-75
2023/12/18 03:03:56;;;;;;;10.10;0.50;;;;;;;4.80;84.55;100830.16;5083502;28;20052;-75
2023/12/18 03:06:23;;;;;;;6.65;1.10;;;;;;;4.78;84.64;100821.53;5093429;28;20076;-76
2023/12/18 03:08:50;;;;;;;9.63;1.20;;;;;;;4.80;84.40;100825.81;5093034;28;20076;-75
2023/12/18 03:11:17;;;;;;;7.15;0.47;;;;;;;4.81;84.64;100829.31;5094486;28;20075;-72
2023/12/18 03:13:44;;;;;;;5.47;0.43;;;;;;;4.78;84.36;100822.38;5080952;28;20076;-72
2023/12/18 03:16:13;;;;;;;6.68;0.60;;;;;;;4.81;84.40;100821.53;5073303;28;20083;-72
2023/12/18 03:18:40;;;;;;;10.90;0.50;;;;;;;4.82;84.72;100828.44;5072697;28;20087;-72
2023/12/18 03:21:10;;;;;;;11.02;1.65;;;;;;;4.84;84.60;100824.13;5072709;28;20090;-70
2023/12/18 03:23:37;;;;;;;2.90;0.50;;;;;;;4.81;84.57;100816.34;5088799;28;20071;-70
2023/12/18 03:26:04;;;;;;;7.72;0.38;;;;;;;4.84;84.57;100829.31;5093146;28;20555;-70
2023/12/18 03:28:31;;;;;;;7.35;0.50;;;;;;;4.83;84.57;100825.84;5092759;28;20517;-70
2023/12/18 03:30:58;;;;;;;5.72;0.43;;;;;;;4.84;84.66;100821.53;5093400;28;20084;-70
2023/12/18 03:33:26;;;;;;;10.30;0.40;;;;;;;4.84;84.40;100818.94;5092997;28;20509;-70
2023/12/18 03:35:53;;;;;;;3.97;0.60;;;;;;;4.83;84.66;100820.66;5093296;28;20472;-71
2023/12/18 03:38:20;;;;;;;9.90;0.85;;;;;;;4.85;84.64;100825.84;5073513;28;20087;-70
2023/12/18 03:40:47;;;;;;;8.10;0.75;;;;;;;4.83;84.35;100815.50;5072678;28;20498;-70
2023/12/18 03:43:14;;;;;;;6.25;0.55;;;;;;;4.85;84.29;100823.25;5092309;28;20071;-70
2023/12/18 03:45:41;;;;;;;10.45;0.40;;;;;;;4.85;84.27;100818.06;5091633;28;20076;-70
2023/12/18 03:48:08;;;;;;;4.72;0.80;;;;;;;4.84;84.46;100817.19;5073302;28;20091;-70
2023/12/18 03:50:36;;;;;;;3.92;0.70;;;;;;;4.85;84.35;100818.91;5076954;28;20119;-70
2023/12/18 03:53:04;;;;;;;11.80;0.90;;;;;;;4.85;84.68;100831.03;5097084;28;20076;-70
2023/12/18 03:55:31;;;;;;;11.43;0.90;;;;;;;4.86;84.36;100827.56;5093889;28;20528;-70
2023/12/18 03:57:58;;;;;;;7.38;0.30;;;;;;;4.84;84.34;100819.78;5076982;28;20048;-70
2023/12/18 04:00:25;;;;;;;10.07;0.50;;;;;;;4.84;84.36;100817.19;5075998;28;20052;-70
2023/12/18 04:02:52;;;;;;;5.13;0.60;;;;;;;4.85;84.34;100820.66;5077042;28;20477;-70
2023/12/18 04:05:19;;;;;;;8.50;0.47;;;;;;;4.84;83.97;100813.75;5081663;28;20094;-70
2023/12/18 04:07:47;;;;;;;6.13;0.30;;;;;;;4.83;83.86;100824.97;5097350;28;20124;-70
2023/12/18 04:10:14;;;;;;;7.28;0.50;;;;;;;4.84;83.93;100826.72;5090207;28;20110;-70
2023/12/18 04:12:41;;;;;;;9.77;1.25;;;;;;;4.84;84.03;100837.09;5077019;28;20452;-70
2023/12/18 04:15:09;;;;;;;7.40;0.90;;;;;;;4.83;84.08;100845.69;5075872;28;20068;-70
2023/12/18 04:17:37;;;;;;;7.65;0.57;;;;;;;4.82;83.99;100847.44;5077140;28;20427;-70
2023/12/18 04:20:05;;;;;;;7.05;0.25;;;;;;;4.77;84.10;100827.56;5086041;28;20075;-70
2023/12/18 04:22:32;;;;;;;8.85;0.50;;;;;;;4.81;83.82;100837.09;5096158;28;20076;-70
2023/12/18 04:25:00;;;;;;;8.15;0.40;;;;;;;4.80;83.71;100846.56;5096920;28;20044;-70
2023/12/18 04:27:27;;;;;;;6.70;0.50;;;;;;;4.80;83.80;100845.69;5097328;28;20048;-70
2023/12/18 04:29:54;;;;;;;11.85;0.70;;;;;;;4.80;83.80;100846.56;5096678;28;20485;-72
2023/12/18 04:32:21;;;;;;;6.70;1.10;;;;;;;4.80;83.93;100830.16;5097152;28;20075;-72
2023/12/18 04:34:48;;;;;;;13.93;1.67;;;;;;;4.80;84.12;100843.09;5095988;28;20531;-73
2023/12/18 04:37:15;;;;;;;9.95;0.40;;;;;;;4.80;84.03;100840.50;5097091;28;20075;-72
2023/12/18 04:39:42;;;;;;;11.63;0.57;;;;;;;4.79;84.01;100831.03;5096741;28;20454;-72
2023/12/18 04:42:11;;;;;;;9.00;0.40;;;;;;;4.79;83.91;100831.03;5095786;28;20131;-72
2023/12/18 04:44:38;;;;;;;7.28;0.70;;;;;;;4.79;83.75;100839.66;5096057;28;20040;-72
2023/12/18 04:47:05;;;;;;;10.63;0.73;;;;;;;4.78;83.71;100842.25;5096597;28;20048;-73
2023/12/18 04:49:32;;;;;;;15.05;0.80;;;;;;;4.78;83.77;100837.06;5095484;28;20124;-72
2023/12/18 04:51:59;;;;;;;9.25;0.80;;;;;;;4.76;83.52;100839.66;5096835;28;20079;-72
2023/12/18 04:54:25;;;;;;;7.45;0.55;;;;;;;4.77;83.94;100836.19;5095604;28;20079;-72
2023/12/18 04:56:53;;;;;;;8.20;0.52;;;;;;;4.76;84.15;100829.28;5096456;28;20083;-73
2023/12/18 04:59:21;;;;;;;10.35;0.50;;;;;;;4.76;83.56;100838.78;5095501;28;20558;-72
2023/12/18 05:01:48;;;;;;;12.93;0.80;;;;;;;4.75;83.60;100827.56;5094547;28;20450;-73
2023/12/18 05:04:15;;;;;;;13.65;0.60;;;;;;;4.75;83.66;100827.56;5095757;28;20528;-73
2023/12/18 05:06:42;;;;;;;9.60;0.70;;;;;;;4.75;83.55;100834.44;5096692;28;20075;-73
2023/12/18 05:09:09;;;;;;;9.43;0.50;;;;;;;4.74;83.83;100833.59;5095374;28;20059;-72
2023/12/18 05:11:36;;;;;;;9.07;0.50;;;;;;;4.74;84.08;100824.94;5095526;28;20075;-72
2023/12/18 05:14:03;;;;;;;7.88;0.60;;;;;;;4.74;83.95;100840.50;5095700;28;20083;-72
2023/12/18 05:16:31;;;;;;;6.20;0.40;;;;;;;4.74;84.08;100836.19;5095092;28;20086;-72
2023/12/18 05:18:58;;;;;;;11.63;1.20;;;;;;;4.74;83.98;100837.91;5093917;28;20528;-72
2023/12/18 05:21:25;;;;;;;13.63;0.80;;;;;;;4.74;84.01;100843.97;5074785;28;20044;-72
2023/12/18 05:23:52;;;;;;;16.80;1.42;;;;;;;4.74;83.81;100840.50;5075331;28;20080;-72
2023/12/18 05:26:19;;;;;;;7.28;0.60;;;;;;;4.74;84.28;100838.78;5075323;28;20517;-74
2023/12/18 05:28:46;;;;;;;10.93;0.70;;;;;;;4.74;84.28;100841.38;5074639;28;20127;-73
2023/12/18 05:31:14;;;;;;;7.38;1.40;;;;;;;4.76;84.28;100854.34;5075531;28;20458;-75
2023/12/18 05:33:43;;;;;;;11.40;0.77;;;;;;;4.75;83.90;100840.53;5075715;28;20094;-75
2023/12/18 05:36:10;;;;;;;11.38;1.25;;;;;;;4.74;84.15;100838.78;5074554;28;20544;-75
2023/12/18 05:38:37;;;;;;;12.93;1.02;;;;;;;4.74;83.85;100840.50;5075014;28;20079;-75
2023/12/18 05:41:04;;;;;;;11.73;1.45;;;;;;;4.76;83.75;100849.16;5074500;28;20514;-75
2023/12/18 05:43:31;;;;;;;12.25;0.80;;;;;;;4.76;84.14;100846.56;5074433;28;20564;-74
2023/12/18 05:45:58;;;;;;;18.48;0.55;;;;;;;4.76;84.09;100851.75;5074381;28;20076;-74
2023/12/18 05:48:25;;;;;;;13.02;0.77;;;;;;;4.76;83.96;100855.19;5075392;28;20049;-74
2023/12/18 05:50:53;;;;;;;10.57;1.40;;;;;;;4.78;84.45;100855.22;5074514;28;20086;-74
2023/12/18 05:53:20;;;;;;;3.35;0.40;;;;;;;4.79;84.33;100854.34;5075607;28;20080;-74
2023/12/18 05:55:48;;;;;;;12.50;0.60;;;;;;;4.80;84.47;100866.44;5074350;28;20080;-74
2023/12/18 05:58:14;;;;;;;12.45;0.65;;;;;;;4.79;84.06;100859.53;5074003;28;20053;-74
2023/12/18 06:00:41;;;;;;;18.00;1.00;;;;;;;4.79;84.09;100862.13;5074449;28;20045;-74
2023/12/18 06:03:08;;;;;;;10.38;0.50;;;;;;;4.81;84.11;100878.56;5073535;28;20494;-74
2023/12/18 06:05:35;;;;;;;16.17;0.60;;;;;;;4.81;84.24;100870.78;5074074;28;20113;-74
2023/12/18 06:08:05;;;;;;;15.20;0.68;;;;;;;4.82;84.40;100875.09;5073796;28;20514;-74
2023/12/18 06:10:31;;;;;;;6.65;0.47;;;;;;;4.81;84.51;100878.56;5073790;28;20080;-75
2023/12/18 06:12:58;;;;;;;8.55;0.82;;;;;;;4.83;84.54;100877.69;5073730;28;20080;-75
2023/12/18 06:15:25;;;;;;;12.00;0.70;;;;;;;4.85;84.44;100880.28;5075135;28;20456;-75
2023/12/18 06:17:53;;;;;;;10.43;0.70;;;;;;;4.84;84.51;100883.75;5074000;28;20076;-74
2023/12/18 06:20:20;;;;;;;13.32;1.30;;;;;;;4.86;84.71;100892.38;5086176;28;20557;-74
2023/12/18 06:22:46;;;;;;;14.02;0.88;;;;;;;4.86;84.47;100894.97;5094190;28;20079;-75
2023/12/18 06:25:15;;;;;;;7.97;0.55;;;;;;;4.86;84.44;100911.41;5093767;28;20076;-75
2023/12/18 06:27:44;;;;;;;18.20;1.38;;;;;;;4.87;84.80;100909.69;5094645;28;20078;-74
2023/12/18 06:30:11;;;;;;;14.75;1.60;;;;;;;4.90;84.50;100904.50;5094603;28;20048;-74
2023/12/18 06:32:38;;;;;;;8.40;0.60;;;;;;;4.91;84.58;100910.53;5094771;28;20402;-75
2023/12/18 06:35:06;;;;;;;12.43;0.95;;;;;;;4.92;84.58;100917.44;5093613;28;20078;-76
2023/12/18 06:37:33;;;;;;;7.70;0.52;;;;;;;4.93;84.43;100920.09;5094214;28;20470;-74
2023/12/18 06:40:00;;;;;;;8.23;0.50;;;;;;;4.94;84.60;100916.63;5094495;28;20084;-73
2023/12/18 06:42:30;;;;;;;7.35;0.98;;;;;;;4.94;84.80;100927.00;5094628;28;20393;-73
2023/12/18 06:44:57;;;;;;;12.40;0.75;;;;;;;4.95;84.71;100928.75;5093919;28;20040;-73
2023/12/18 06:47:24;;;;;;;12.43;1.02;;;;;;;4.96;84.47;100929.63;5094701;28;20075;-73
2023/12/18 06:49:50;;;;;;;10.75;0.90;;;;;;;4.97;84.58;100926.16;5066423;28;20088;-79
2023/12/18 06:52:17;;;;;;;10.30;0.75;;;;;;;4.98;84.54;100928.75;5094024;28;20052;-79
2023/12/18 06:54:44;;;;;;;14.82;1.58;;;;;;;4.99;84.76;100930.47;5094872;28;20094;-79
2023/12/18 06:57:12;;;;;;;14.60;0.90;;;;;;;5.00;84.83;100932.19;5094225;28;20076;-79
2023/12/18 06:59:40;;;;;;;14.85;1.90;;;;;;;5.01;84.57;100935.69;5094934;28;20048;-79
2023/12/18 07:02:07;;;;;;;16.25;1.13;;;;;;;5.03;84.33;100939.13;5094928;28;20087;-79
2023/12/18 07:04:34;;;;;;;14.15;0.80;;;;;;;5.02;84.77;100946.03;5094360;28;20040;-79
2023/12/18 07:07:01;;;;;;;24.02;0.70;;;;;;;5.00;84.27;100941.72;5095331;28;20096;-79
2023/12/18 07:09:28;;;;;;;15.05;1.00;;;;;;;5.05;84.69;100951.22;5093887;28;20131;-77
2023/12/18 07:11:55;;;;;;;13.02;1.80;;;;;;;5.05;84.25;100955.56;5094506;28;20521;-79
2023/12/18 07:14:21;;;;;;;11.50;1.00;;;;;;;5.03;84.68;100952.97;5094185;28;20076;-79
2023/12/18 07:16:50;;;;;;;15.68;0.63;;;;;;;5.04;84.32;100952.09;5094118;28;20075;-79
2023/12/18 07:19:17;;;;;;;9.07;0.77;;;;;;;5.06;84.59;100952.09;5094527;28;20454;-78
2023/12/18 07:21:44;;;;;;;8.93;0.50;;;;;;;5.06;84.46;100960.75;5076861;28;20045;-79
2023/12/18 07:24:11;;;;;;;14.88;0.70;;;;;;;5.07;84.34;100956.44;5082747;28;21013;-79
2023/12/18 07:26:38;;;;;;;9.45;1.02;;;;;;;5.08;84.62;100956.44;5079069;28;20071;-79
2023/12/18 07:29:05;;;;;;;7.55;0.65;;;;;;;5.06;84.42;100950.41;5089268;28;20080;-79
2023/12/18 07:31:32;;;;;;;8.63;0.52;;;;;;;5.10;84.53;100963.38;5089624;28;20052;-79
2023/12/18 07:34:01;;;;;;;16.98;0.60;;;;;;;5.11;84.33;100952.13;5085758;28;20075;-79
2023/12/18 07:36:28;;;;;;;10.73;0.40;;;;;;;5.11;84.45;100965.09;5081554;28;20108;-79
2023/12/18 07:38:54;;;;;;;12.52;0.70;;;;;;;5.11;84.17;100959.91;5076260;28;20497;-79
2023/12/18 07:41:21;;;;;;;9.55;0.68;;;;;;;5.10;84.21;100955.59;5088879;28;20287;-79
2023/12/18 07:43:48;;;;;;;7.53;0.75;;;;;;;5.13;84.46;100965.97;5083096;28;20068;-78
2023/12/18 07:46:19;;;;;;;11.13;1.15;;;;;;;5.13;84.51;100969.41;5079629;28;20102;-79
2023/12/18 07:48:47;;;;;;;11.75;0.40;;;;;;;5.13;84.43;100976.34;5081655;28;20036;-79
2023/12/18 07:51:16;;;;;;;13.15;0.95;;;;;;;5.14;84.22;100981.50;5078342;28;20046;-78
2023/12/18 07:53:44;;;;;;;7.85;1.38;;;;;;;5.13;84.06;100978.94;5083752;28;20063;-78
2023/12/18 07:56:11;;;;;;;15.55;0.75;;;;;;;5.14;84.22;100962.50;5085267;28;20048;-79
2023/12/18 07:58:39;;;;;;;15.25;1.60;;;;;;;5.13;84.53;100968.56;5085360;28;20117;-79
2023/12/18 08:01:06;;;;;;;7.93;0.40;;;;;;;5.18;84.11;100972.03;5080511;28;20092;-79
2023/12/18 08:03:32;;;;;;;7.05;0.82;;;;;;;5.18;84.45;100972.03;5085723;28;20127;-79
2023/12/18 08:05:59;;;;;;;8.43;0.40;;;;;;;5.19;84.31;100963.38;5088060;28;20102;-77
2023/12/18 08:08:28;;;;;;;8.38;0.95;;;;;;;5.20;84.52;100972.88;5082834;28;20132;-79
2023/12/18 08:10:55;;;;;;;8.73;0.77;;;;;;;5.20;84.30;100970.28;5087637;28;20127;-77
2023/12/18 08:13:23;;;;;;;10.15;0.55;;;;;;;5.22;84.44;100971.16;5084382;28;20048;-79
2023/12/18 08:15:50;;;;;;;11.38;0.70;;;;;;;5.22;84.14;100985.00;5079103;28;20360;-78
2023/12/18 08:18:17;;;;;;;10.95;0.70;;;;;;;5.23;84.32;100997.13;5081616;28;20080;-79
2023/12/18 08:20:44;;;;;;;8.57;0.70;;;;;;;5.24;84.33;100992.81;5081759;28;20044;-79
2023/12/18 08:23:11;;;;;;;14.38;0.77;;;;;;;5.26;84.32;100996.25;5083104;28;20048;-78
2023/12/18 08:25:40;;;;;;;9.20;0.50;;;;;;;5.27;84.33;100998.00;5087418;28;20052;-78
2023/12/18 08:28:07;;;;;;;9.43;0.68;;;;;;;5.29;84.03;101001.47;5086362;28;20091;-78
2023/12/18 08:30:34;;;;;;;10.00;1.70;;;;;;;5.28;84.29;101000.56;5081237;28;20090;-78
2023/12/18 08:33:01;;;;;;;15.25;0.70;;;;;;;5.29;84.44;101001.47;5082750;28;20085;-79
2023/12/18 08:35:28;;;;;;;6.63;0.50;;;;;;;5.31;84.49;101002.31;5086004;28;20575;-78
2023/12/18 08:37:54;;;;;;;6.13;0.50;;;;;;;5.32;84.00;101009.25;5081361;28;20040;-79
2023/12/18 08:40:21;;;;;;;8.10;0.50;;;;;;;5.33;84.34;101012.72;5083439;28;20112;-78
2023/12/18 08:42:50;;;;;;;11.32;0.70;;;;;;;5.32;84.24;101001.47;5081810;28;20080;-79
2023/12/18 08:45:17;;;;;;;7.00;0.47;;;;;;;5.34;84.60;100999.72;5089359;28;20048;-78
2023/12/18 08:47:44;;;;;;;7.00;0.52;;;;;;;5.35;84.15;101001.47;5087249;28;20450;-79
2023/12/18 08:50:11;;;;;;;5.65;0.82;;;;;;;5.35;84.11;100998.88;5081150;28;20076;-79
2023/12/18 08:52:38;;;;;;;5.78;0.65;;;;;;;5.36;83.98;101005.78;5085565;28;20129;-79
2023/12/18 08:55:05;;;;;;;9.20;0.95;;;;;;;5.36;84.07;101003.19;5083005;28;20074;-79
2023/12/18 08:57:32;;;;;;;7.40;0.50;;;;;;;5.36;84.28;101018.78;5082349;28;20127;-79
2023/12/18 09:00:01;;;;;;;5.95;0.60;;;;;;;5.37;83.97;101020.50;5088809;28;20075;-72
2023/12/18 09:02:28;;;;;;;10.75;2.00;;;;;;;5.39;84.13;101031.75;5086389;28;20498;-72
2023/12/18 09:04:55;;;;;;;3.30;1.15;;;;;;;5.40;84.06;101036.06;5083283;28;20036;-71
2023/12/18 09:07:22;;;;;;;11.15;0.98;;;;;;;5.39;84.21;101023.97;5079728;28;20072;-72
2023/12/18 09:09:49;;;;;;;7.85;0.43;;;;;;;5.39;84.13;101023.97;5084799;28;20076;-71
2023/12/18 09:12:16;;;;;;;3.33;0.40;;;;;;;5.42;83.97;101039.53;5086482;28;20197;-72
2023/12/18 09:14:42;;;;;;;5.55;0.82;;;;;;;5.42;83.91;101041.28;5090069;28;20540;-71
2023/12/18 09:17:11;;;;;;;8.57;1.05;;;;;;;5.43;83.64;101046.47;5079872;28;20083;-71
2023/12/18 09:19:38;;;;;;;6.97;0.47;;;;;;;5.41;83.87;101043.00;5083425;28;20080;-71
2023/12/18 09:22:05;;;;;;;9.68;0.60;;;;;;;5.42;84.10;101052.50;5082446;28;20049;-71
2023/12/18 09:24:32;;;;;;;11.65;1.60;;;;;;;5.43;83.90;101066.34;5080947;28;20040;-71
2023/12/18 09:26:59;;;;;;;5.25;0.40;;;;;;;5.42;84.02;101065.50;5077786;28;20497;-71
2023/12/18 09:29:26;;;;;;;6.13;0.50;;;;;;;5.45;83.98;101064.63;5080740;28;20079;-71
2023/12/18 09:31:53;;;;;;;7.47;0.70;;;;;;;5.45;83.79;101060.31;5086013;28;20080;-71
2023/12/18 09:34:21;;;;;;;3.28;0.63;;;;;;;5.46;84.01;101062.06;5088013;28;20076;-71
2023/12/18 09:36:48;;;;;;;2.95;0.43;;;;;;;5.46;83.63;101054.28;5082276;28;20084;-71
2023/12/18 09:39:15;;;;;;;3.70;0.40;;;;;;;5.46;83.46;101050.78;5086115;28;20080;-71
2023/12/18 09:41:42;;;;;;;7.10;0.70;;;;;;;5.48;83.40;101054.25;5083823;28;20412;-71
2023/12/18 09:44:09;;;;;;;3.92;1.17;;;;;;;5.48;83.62;101060.31;5089118;28;20044;-71
2023/12/18 09:46:36;;;;;;;7.45;0.43;;;;;;;5.46;83.32;101062.06;5085254;28;20072;-71
2023/12/18 09:49:03;;;;;;;6.78;0.30;;;;;;;5.47;83.66;101061.19;5079986;28;20076;-71
2023/12/18 09:51:33;;;;;;;5.97;0.82;;;;;;;5.46;83.84;101063.75;5075697;28;20068;-71
2023/12/18 09:54:01;;;;;;;3.08;0.35;;;;;;;5.51;83.37;101075.03;5084169;28;20083;-72
2023/12/18 09:56:28;;;;;;;5.07;0.40;;;;;;;5.50;83.35;101074.16;5078861;28;20076;-71
2023/12/18 09:58:57;;;;;;;2.78;0.40;;;;;;;5.51;83.38;101075.88;5085794;28;20538;-71
2023/12/18 10:01:24;;;;;;;8.80;0.40;;;;;;;5.50;83.45;101063.78;5086861;28;20102;-71
2023/12/18 10:03:51;;;;;;;5.70;0.30;;;;;;;5.52;83.17;101064.66;5076802;28;20091;-71
2023/12/18 10:06:18;;;;;;;4.45;0.47;;;;;;;5.53;83.62;101071.56;5082591;28;20097;-71
2023/12/18 10:08:50;;;;;;;5.38;0.93;;;;;;;5.55;83.50;101070.75;5078333;28;20136;-71
2023/12/18 10:11:24;;;;;;;8.90;1.17;;;;;;;5.55;83.14;101070.75;5085878;28;20072;-73
2023/12/18 10:13:52;;;;;;;6.72;0.65;;;;;;;5.55;83.13;101065.53;5086978;28;20095;-72
2023/12/18 10:16:19;;;;;;;8.93;2.25;;;;;;;5.55;83.26;101052.56;5081399;28;20211;-73
2023/12/18 10:18:46;;;;;;;6.22;0.80;;;;;;;5.56;82.90;101046.50;5078991;28;20044;-73
2023/12/18 10:21:13;;;;;;;2.08;1.08;;;;;;;5.55;83.03;101042.19;5078262;28;20135;-79
2023/12/18 10:23:40;;;;;;;5.90;1.05;;;;;;;5.55;83.02;101039.59;5073925;28;20093;-79
2023/12/18 10:26:09;;;;;;;5.25;0.70;;;;;;;5.57;82.99;101040.44;5089693;28;20498;-79
2023/12/18 10:28:35;;;;;;;2.45;0.63;;;;;;;5.56;82.90;101044.78;5078782;28;20075;-79
2023/12/18 10:31:04;;;;;;;4.20;0.40;;;;;;;5.57;83.21;101035.25;5081915;28;20099;-79
2023/12/18 10:33:31;;;;;;;3.45;0.60;;;;;;;5.57;82.90;101036.09;5086901;28;20040;-80
2023/12/18 10:35:59;;;;;;;1.50;0.45;;;;;;;5.57;83.38;101043.91;5076110;28;20068;-79
2023/12/18 10:38:31;;;;;;;3.13;0.43;;;;;;;5.59;82.88;101046.50;5081654;28;20135;-79
2023/12/18 10:41:02;;;;;;;7.43;0.90;;;;;;;5.55;83.22;101037.00;5077654;28;20520;-80
2023/12/18 10:43:32;;;;;;;2.95;0.40;;;;;;;5.53;82.78;101040.44;5080802;28;20513;-79
2023/12/18 10:46:02;;;;;;;1.95;0.40;;;;;;;5.59;82.82;101059.50;5078033;28;20078;-79
2023/12/18 10:48:29;;;;;;;3.25;1.10;;;;;;;5.58;82.98;101084.59;5083887;28;20040;-79
2023/12/18 10:50:58;;;;;;;3.78;0.40;;;;;;;5.51;82.78;101081.06;5075076;28;20537;-79
2023/12/18 10:53:25;;;;;;;4.75;0.52;;;;;;;5.59;82.92;101093.22;5080114;28;20127;-79
2023/12/18 10:55:54;;;;;;;5.53;1.15;;;;;;;5.60;82.89;101090.63;5086863;28;20055;-79
2023/12/18 10:58:21;;;;;;;4.35;0.38;;;;;;;5.61;83.04;101088.91;5083988;28;20153;-79
2023/12/18 11:00:51;;;;;;;3.63;0.30;;;;;;;5.61;82.72;101092.38;5083199;28;20088;-79
2023/12/18 11:03:19;;;;;;;6.40;0.40;;;;;;;5.60;82.80;101085.44;5085725;28;20395;-79
2023/12/18 11:05:48;;;;;;;8.00;0.70;;;;;;;5.62;82.73;101082.84;5080516;28;20892;-79
2023/12/18 11:08:15;;;;;;;5.25;0.25;;;;;;;5.62;83.04;101057.75;5083976;28;20533;-78
2023/12/18 11:10:43;;;;;;;1.60;0.40;;;;;;;5.62;82.70;101052.56;5085977;28;20119;-79
2023/12/18 11:13:20;;;;;;;3.00;0.40;;;;;;;5.64;82.97;101050.00;5077654;28;20076;-78
2023/12/18 11:15:57;;;;;;;2.55;0.60;;;;;;;5.62;82.66;101044.78;5079220;28;20048;-79
2023/12/18 11:18:33;;;;;;;3.35;0.30;;;;;;;5.65;82.75;101051.72;5081289;28;20048;-79
2023/12/18 11:21:00;;;;;;;3.58;0.70;;;;;;;5.63;82.67;101058.63;5081015;28;20051;-71
2023/12/18 11:23:27;;;;;;;1.00;0.30;;;;;;;5.65;82.49;101072.47;5077099;28;20127;-71
2023/12/18 11:25:54;;;;;;;4.10;0.70;;;;;;;5.65;82.56;101078.53;5073886;28;20041;-71
2023/12/18 11:28:24;;;;;;;6.20;0.82;;;;;;;5.66;82.45;101079.38;5073219;28;20080;-71
2023/12/18 11:31:01;;;;;;;3.10;0.70;;;;;;;5.66;82.29;101059.50;5073169;28;20585;-79
2023/12/18 11:33:28;;;;;;;5.63;1.15;;;;;;;5.66;82.39;101063.81;5074185;28;20466;-79